Time;durP1;ratioP1;P1;durP2;ratioP2;P2;SDS_P1;SDS_P2;PMS_P1;PMS_P2;Temp;Humidity;BMP_temperature;BMP_pressure;BME280_temperature;BME280_humidity;BME280_pressure;Samples;Min_cycle;Max_cycle;Signal;HPM_P1;HPM_P2
2021/01/01 00:07:01;;;;;;;39.27;24.70;;;5.00;99.90;;;;;;4922704;29;20558;-88
2021/01/01 00:10:10;;;;;;;46.27;24.67;;;5.10;99.90;;;;;;4926463;29;20464;-89
2021/01/01 00:12:39;;;;;;;42.40;25.03;;;5.10;99.90;;;;;;4923199;29;20428;-87
2021/01/01 00:15:10;;;;;;;40.77;23.37;;;5.10;99.90;;;;;;4920575;29;20975;-86
2021/01/01 00:17:55;;;;;;;41.70;25.57;;;5.10;99.90;;;;;;4977159;23;20505;-87
2021/01/01 00:20:20;;;;;;;41.23;23.87;;;5.10;99.90;;;;;;4946544;28;20529;-86
2021/01/01 00:22:56;;;;;;;43.00;23.70;;;5.10;99.90;;;;;;4943354;28;20620;-88
2021/01/01 00:25:22;;;;;;;43.27;23.57;;;5.10;99.90;;;;;;4963241;28;20186;-85
2021/01/01 00:27:55;;;;;;;33.63;21.23;;;5.10;99.90;;;;;;4947057;28;20466;-86
2021/01/01 00:30:27;;;;;;;36.50;19.80;;;5.10;99.90;;;;;;4944701;28;20203;-83
2021/01/01 00:32:55;;;;;;;33.40;20.43;;;5.10;99.90;;;;;;4944336;28;21879;-86
2021/01/01 00:35:38;;;;;;;32.80;20.13;;;5.10;99.90;;;;;;4944918;28;20418;-85
2021/01/01 00:38:04;;;;;;;34.20;20.40;;;5.10;99.90;;;;;;4935406;28;20441;-84
2021/01/01 00:40:34;;;;;;;29.07;18.30;;;5.00;99.90;;;;;;4927956;28;20458;-87
2021/01/01 00:43:07;;;;;;;30.13;18.40;;;5.00;99.90;;;;;;4945936;28;20264;-89
2021/01/01 00:45:33;;;;;;;35.13;19.67;;;5.10;99.90;;;;;;4948273;28;20533;-86
2021/01/01 00:47:59;;;;;;;32.63;21.20;;;5.10;99.90;;;;;;4952591;28;20483;-87
2021/01/01 00:50:24;;;;;;;35.53;19.67;;;5.10;99.90;;;;;;4947155;28;20254;-87
2021/01/01 00:52:50;;;;;;;34.77;21.03;;;5.10;99.90;;;;;;4949681;28;21364;-88
2021/01/01 00:55:19;;;;;;;36.50;23.13;;;5.10;99.90;;;;;;4949512;28;20221;-87
2021/01/01 00:57:45;;;;;;;39.07;23.47;;;5.10;99.90;;;;;;4969679;28;20205;-86
2021/01/01 01:00:14;;;;;;;36.40;21.90;;;5.10;99.90;;;;;;4949987;28;20588;-88
2021/01/01 01:02:40;;;;;;;39.67;23.77;;;5.10;99.90;;;;;;4967937;28;20183;-84
2021/01/01 01:05:12;;;;;;;43.67;24.47;;;5.10;99.90;;;;;;4954368;28;20470;-86
2021/01/01 01:07:52;;;;;;;40.10;23.30;;;5.10;99.90;;;;;;4936428;28;20227;-86
2021/01/01 01:11:02;;;;;;;41.27;23.40;;;5.10;99.90;;;;;;4950560;28;21395;-86
2021/01/01 01:13:59;;;;;;;34.13;21.40;;;5.00;99.90;;;;;;4950430;28;20431;-87
2021/01/01 01:16:28;;;;;;;34.80;20.37;;;5.00;99.90;;;;;;4935935;28;20817;-83
2021/01/01 01:19:07;;;;;;;34.47;19.17;;;5.10;99.90;;;;;;4949082;28;20478;-87
2021/01/01 01:21:35;;;;;;;41.63;18.77;;;5.00;99.90;;;;;;4946323;28;20450;-87
2021/01/01 01:24:04;;;;;;;32.43;19.00;;;5.00;99.90;;;;;;4939998;28;20449;-84
2021/01/01 01:26:45;;;;;;;32.80;19.90;;;5.00;99.90;;;;;;4944542;28;20462;-87
2021/01/01 01:29:13;;;;;;;31.60;17.27;;;5.00;99.90;;;;;;4939759;28;20902;-85
2021/01/01 01:31:39;;;;;;;30.40;17.60;;;4.90;99.90;;;;;;4957329;28;20435;-87
2021/01/01 01:34:09;;;;;;;32.27;19.20;;;4.90;99.90;;;;;;4942429;28;20449;-86
2021/01/01 01:36:41;;;;;;;31.73;18.57;;;4.80;99.90;;;;;;4945143;28;20227;-88
2021/01/01 01:39:09;;;;;;;30.50;16.50;;;4.80;99.90;;;;;;4945426;28;20473;-87
2021/01/01 01:41:35;;;;;;;27.10;17.07;;;4.80;99.90;;;;;;4926876;28;20461;-87
2021/01/01 01:44:12;;;;;;;29.30;16.03;;;4.80;99.90;;;;;;4955542;28;20497;-87
2021/01/01 01:46:51;;;;;;;29.73;16.50;;;4.70;99.90;;;;;;4939123;28;20224;-87
2021/01/01 01:49:32;;;;;;;24.50;14.50;;;4.70;99.90;;;;;;4923671;28;21182;-88
2021/01/01 01:52:02;;;;;;;24.87;14.27;;;4.60;99.90;;;;;;4925800;28;20995;-88
2021/01/01 01:54:43;;;;;;;23.60;14.30;;;4.60;99.90;;;;;;4924703;28;21013;-87
2021/01/01 01:57:12;;;;;;;24.63;14.90;;;4.60;99.90;;;;;;4946452;28;20473;-87
2021/01/01 01:59:48;;;;;;;22.77;13.83;;;4.60;99.90;;;;;;4943014;28;20458;-86
2021/01/01 02:02:13;;;;;;;23.20;14.80;;;4.70;99.90;;;;;;4961644;28;21037;-86
2021/01/01 02:04:46;;;;;;;22.77;13.87;;;4.60;99.90;;;;;;4940209;28;20489;-86
2021/01/01 02:07:17;;;;;;;22.93;14.40;;;4.70;99.90;;;;;;4945986;28;20435;-87
2021/01/01 02:09:52;;;;;;;19.50;13.23;;;4.70;99.90;;;;;;4926861;28;20560;-88
2021/01/01 02:12:23;;;;;;;23.07;13.10;;;4.70;99.90;;;;;;4964965;28;20426;-89
2021/01/01 02:14:51;;;;;;;21.00;12.70;;;4.70;99.90;;;;;;4964095;28;20517;-87
2021/01/01 02:17:19;;;;;;;20.67;13.07;;;4.60;99.90;;;;;;4947936;28;20520;-86
2021/01/01 02:19:48;;;;;;;22.00;12.87;;;4.60;99.90;;;;;;4946412;28;20449;-86
2021/01/01 02:22:24;;;;;;;21.67;12.70;;;4.70;99.90;;;;;;4951053;28;20438;-83
2021/01/01 02:24:55;;;;;;;20.40;11.67;;;4.60;99.90;;;;;;4947350;28;20430;-87
2021/01/01 02:27:21;;;;;;;19.90;12.70;;;4.60;99.90;;;;;;4959321;28;20497;-85
2021/01/01 02:29:47;;;;;;;19.60;11.90;;;4.60;99.90;;;;;;4961749;28;20468;-88
2021/01/01 02:32:16;;;;;;;17.77;11.77;;;4.70;99.90;;;;;;4942938;28;20430;-88
2021/01/01 02:34:56;;;;;;;16.80;11.10;;;4.60;99.90;;;;;;4943305;28;20698;-87
2021/01/01 02:37:28;;;;;;;21.03;12.57;;;4.60;99.90;;;;;;4947793;28;20460;-85
2021/01/01 02:39:54;;;;;;;20.63;13.43;;;4.60;99.90;;;;;;4946013;28;20881;-88
2021/01/01 02:42:22;;;;;;;15.50;10.77;;;4.60;99.90;;;;;;4946564;28;20429;-88
2021/01/01 02:44:54;;;;;;;17.63;10.60;;;4.60;99.90;;;;;;4932766;28;20551;-86
2021/01/01 02:47:20;;;;;;;19.67;11.40;;;4.60;99.90;;;;;;4942888;28;20450;-85
2021/01/01 02:49:55;;;;;;;13.67;9.43;;;4.70;99.90;;;;;;4962701;28;20485;-88
2021/01/01 02:52:36;;;;;;;20.30;10.83;;;4.60;99.90;;;;;;4965710;28;20209;-84
2021/01/01 02:55:03;;;;;;;11.67;8.23;;;4.60;99.90;;;;;;4937291;28;20442;-87
2021/01/01 02:57:33;;;;;;;19.40;10.53;;;4.60;99.90;;;;;;4952545;28;20439;-85
2021/01/01 03:00:47;;;;;;;15.90;8.40;;;4.50;99.90;;;;;;4953948;28;20519;-85
2021/01/01 03:03:18;;;;;;;11.37;7.97;;;4.50;99.90;;;;;;5006120;23;20489;-88
2021/01/01 03:06:00;;;;;;;14.87;8.73;;;4.40;99.90;;;;;;4990406;28;20462;-85
2021/01/01 03:08:46;;;;;;;12.97;8.57;;;4.40;99.90;;;;;;4979457;28;20451;-83
2021/01/01 03:11:26;;;;;;;10.70;6.70;;;4.40;99.90;;;;;;4960487;28;20464;-85
2021/01/01 03:14:00;;;;;;;10.03;6.70;;;4.40;99.90;;;;;;4946790;28;20529;-86
2021/01/01 03:16:27;;;;;;;8.17;5.70;;;4.50;99.90;;;;;;4973838;28;20488;-85
2021/01/01 03:19:03;;;;;;;7.50;5.40;;;4.40;99.90;;;;;;4952156;28;20441;-87
2021/01/01 03:21:38;;;;;;;11.20;5.53;;;4.50;99.90;;;;;;4946961;28;20442;-90
2021/01/01 03:24:06;;;;;;;6.67;4.67;;;4.30;99.90;;;;;;4945313;28;20425;-86
2021/01/01 03:26:39;;;;;;;8.67;4.40;;;4.30;99.90;;;;;;4948826;28;20454;-85
2021/01/01 03:29:08;;;;;;;6.73;4.83;;;4.30;99.90;;;;;;4943539;28;20470;-87
2021/01/01 03:31:39;;;;;;;7.10;4.40;;;4.30;99.90;;;;;;4960824;28;20560;-87
2021/01/01 03:34:12;;;;;;;6.50;3.70;;;4.30;99.90;;;;;;4945572;28;20430;-87
2021/01/01 03:36:44;;;;;;;8.27;5.00;;;4.20;99.90;;;;;;4945108;28;20459;-86
2021/01/01 03:39:17;;;;;;;8.87;5.00;;;4.20;99.90;;;;;;4945433;28;20422;-88
2021/01/01 03:41:46;;;;;;;7.37;4.70;;;4.10;99.90;;;;;;4943455;28;20437;-86
2021/01/01 03:44:11;;;;;;;6.57;4.40;;;4.20;99.90;;;;;;4927419;28;20502;-85
2021/01/01 03:46:48;;;;;;;5.90;5.07;;;4.10;99.90;;;;;;4943025;28;20519;-86
2021/01/01 03:49:22;;;;;;;6.33;4.87;;;4.10;99.90;;;;;;4961347;28;21606;-88
2021/01/01 03:51:50;;;;;;;6.47;4.57;;;4.10;99.90;;;;;;4946015;28;20433;-87
2021/01/01 03:54:21;;;;;;;6.97;5.43;;;4.20;99.90;;;;;;4942732;28;20997;-86
2021/01/01 03:56:58;;;;;;;10.50;5.27;;;4.20;99.90;;;;;;4945833;28;20465;-86
2021/01/01 03:59:27;;;;;;;7.83;5.37;;;4.20;99.90;;;;;;4943150;28;20433;-86
2021/01/01 04:01:57;;;;;;;10.70;5.30;;;4.20;99.90;;;;;;4940622;28;20446;-87
2021/01/01 04:04:26;;;;;;;7.23;4.90;;;4.10;99.90;;;;;;4931415;28;20428;-88
2021/01/01 04:06:54;;;;;;;6.97;4.57;;;4.10;99.90;;;;;;4943473;28;20534;-87
2021/01/01 04:09:24;;;;;;;6.47;4.63;;;4.10;99.90;;;;;;4943324;28;21004;-87
2021/01/01 04:12:05;;;;;;;6.50;4.40;;;4.00;99.90;;;;;;4945481;28;20528;-88
2021/01/01 04:14:30;;;;;;;7.13;4.70;;;4.10;99.90;;;;;;4946531;28;20528;-89
2021/01/01 04:17:02;;;;;;;6.73;5.17;;;4.10;99.90;;;;;;4933274;28;20492;-87
2021/01/01 04:19:45;;;;;;;8.50;5.30;;;4.10;99.90;;;;;;4946859;28;20198;-85
2021/01/01 04:22:11;;;;;;;6.23;4.60;;;4.00;99.90;;;;;;4948197;28;20471;-88
2021/01/01 04:24:36;;;;;;;5.20;4.37;;;4.00;99.90;;;;;;4934305;28;20442;-89
2021/01/01 04:27:02;;;;;;;8.13;5.57;;;3.90;99.90;;;;;;4946678;28;20221;-87
2021/01/01 04:29:31;;;;;;;6.77;5.03;;;4.00;99.90;;;;;;4947295;28;20317;-88
2021/01/01 04:32:01;;;;;;;7.70;4.40;;;3.90;99.90;;;;;;4936190;28;21405;-89
2021/01/01 04:34:27;;;;;;;5.70;4.17;;;3.90;99.90;;;;;;4948696;28;20992;-86
2021/01/01 04:36:53;;;;;;;8.60;4.70;;;3.90;99.90;;;;;;4963939;28;20528;-87
2021/01/01 04:39:24;;;;;;;6.77;4.47;;;3.90;99.90;;;;;;4946819;28;20286;-87
2021/01/01 04:41:59;;;;;;;4.60;3.83;;;3.90;99.90;;;;;;4947940;28;20449;-89
2021/01/01 04:44:30;;;;;;;5.00;3.57;;;3.80;99.90;;;;;;4946634;28;20508;-88
2021/01/01 04:47:17;;;;;;;5.13;3.47;;;3.80;99.90;;;;;;4948386;28;20488;-88
2021/01/01 04:49:45;;;;;;;5.20;3.83;;;3.80;99.90;;;;;;4946177;28;20480;-87
2021/01/01 04:52:17;;;;;;;3.33;3.00;;;3.70;99.90;;;;;;4948572;28;21134;-87
2021/01/01 04:54:45;;;;;;;5.83;3.63;;;3.70;99.90;;;;;;4946569;28;20533;-84
2021/01/01 04:57:57;;;;;;;4.10;3.60;;;3.70;99.90;;;;;;4966318;28;20559;-87
2021/01/01 05:00:25;;;;;;;5.50;3.90;;;3.70;99.90;;;;;;4947837;28;20458;-88
2021/01/01 05:02:56;;;;;;;4.83;3.70;;;3.60;99.90;;;;;;4947294;28;20956;-88
2021/01/01 05:05:36;;;;;;;5.00;3.80;;;3.50;99.90;;;;;;4949195;28;20449;-88
2021/01/01 05:08:03;;;;;;;4.93;3.80;;;3.50;99.90;;;;;;4945909;28;20470;-86
2021/01/01 05:10:42;;;;;;;4.70;4.07;;;3.50;99.90;;;;;;4947119;28;20445;-87
2021/01/01 05:13:23;;;;;;;4.03;3.20;;;3.50;99.90;;;;;;4933404;28;20450;-88
2021/01/01 05:16:03;;;;;;;5.50;3.60;;;3.40;99.90;;;;;;4945099;28;20469;-88
2021/01/01 05:18:32;;;;;;;3.40;3.00;;;3.40;99.90;;;;;;4947987;28;20454;-90
2021/01/01 05:21:04;;;;;;;5.00;3.43;;;3.30;99.90;;;;;;4966597;28;20442;-86
2021/01/01 05:23:30;;;;;;;6.43;3.47;;;3.20;99.90;;;;;;4947078;28;20453;-89
2021/01/01 05:26:33;;;;;;;3.90;3.10;;;3.20;99.90;;;;;;4950957;28;21013;-86
2021/01/01 05:29:19;;;;;;;4.20;3.13;;;3.10;99.90;;;;;;4882811;29;20584;-87
2021/01/01 05:31:52;;;;;;;4.90;3.87;;;3.00;99.90;;;;;;4943520;28;20469;-87
2021/01/01 05:34:23;;;;;;;4.03;3.50;;;2.90;99.90;;;;;;4945832;28;20434;-86
2021/01/01 05:36:57;;;;;;;6.83;3.60;;;3.00;99.90;;;;;;4943240;28;20473;-87
2021/01/01 05:39:28;;;;;;;4.60;3.20;;;2.90;99.90;;;;;;4947182;28;20443;-88
2021/01/01 05:42:02;;;;;;;6.43;3.60;;;2.90;99.90;;;;;;4963290;28;20453;-87
2021/01/01 05:44:49;;;;;;;3.23;2.90;;;2.90;99.90;;;;;;4942185;28;20447;-88
2021/01/01 05:47:17;;;;;;;5.33;3.20;;;2.90;99.90;;;;;;4931041;28;20465;-86
2021/01/01 05:50:00;;;;;;;6.20;4.10;;;2.90;99.90;;;;;;4944206;28;20484;-86
2021/01/01 05:52:44;;;;;;;4.03;3.60;;;3.00;99.90;;;;;;4961837;28;20453;-86
2021/01/01 05:55:17;;;;;;;7.57;3.73;;;3.00;99.90;;;;;;4961693;28;20437;-87
2021/01/01 05:57:58;;;;;;;6.53;3.80;;;2.90;99.90;;;;;;4965240;28;20469;-88
2021/01/01 06:00:48;;;;;;;5.00;3.70;;;2.90;99.90;;;;;;4947273;28;20442;-86
2021/01/01 06:03:33;;;;;;;6.90;4.00;;;2.90;99.90;;;;;;4942525;28;20457;-86
2021/01/01 06:06:13;;;;;;;5.93;4.40;;;2.90;99.90;;;;;;4939107;28;20869;-85
2021/01/01 06:08:48;;;;;;;4.40;3.33;;;2.80;99.90;;;;;;4939285;28;20899;-86
2021/01/01 06:11:21;;;;;;;7.47;4.57;;;2.90;99.90;;;;;;4939589;28;20492;-83
2021/01/01 06:14:11;;;;;;;9.97;3.90;;;2.90;99.90;;;;;;4957553;28;20505;-86
2021/01/01 06:16:47;;;;;;;5.70;3.47;;;2.90;99.90;;;;;;4969061;23;20505;-89
2021/01/01 06:19:41;;;;;;;5.50;4.07;;;2.80;99.90;;;;;;4940668;28;20819;-86
2021/01/01 06:22:26;;;;;;;5.97;3.77;;;2.80;99.90;;;;;;4953685;28;20692;-87
2021/01/01 06:25:20;;;;;;;4.47;3.37;;;2.80;99.90;;;;;;4939166;28;20442;-84
2021/01/01 06:30:53;;;;;;;7.17;4.80;;;2.70;99.90;;;;;;4936371;29;21209;-88
2021/01/01 06:33:28;;;;;;;7.00;4.63;;;2.80;99.90;;;;;;4906054;29;20473;-86
2021/01/01 06:35:54;;;;;;;6.13;4.23;;;2.80;99.90;;;;;;4922864;29;20478;-88
2021/01/01 06:38:35;;;;;;;7.33;4.53;;;2.70;99.90;;;;;;4921555;29;20438;-88
2021/01/01 06:41:01;;;;;;;6.90;4.63;;;2.70;99.90;;;;;;4921980;29;20549;-86
2021/01/01 06:43:55;;;;;;;6.87;5.50;;;2.70;99.90;;;;;;4940093;29;20530;-86
2021/01/01 06:46:45;;;;;;;7.63;4.63;;;2.70;99.90;;;;;;4922144;29;20552;-85
2021/01/01 06:49:43;;;;;;;9.17;5.13;;;2.80;99.90;;;;;;4938732;29;20462;-85
2021/01/01 06:52:20;;;;;;;5.97;4.30;;;2.80;99.90;;;;;;4939675;29;20562;-87
2021/01/01 06:55:06;;;;;;;6.70;5.20;;;2.90;99.90;;;;;;4921908;29;20453;-87
2021/01/01 06:57:31;;;;;;;9.37;5.03;;;2.90;99.90;;;;;;4921895;29;20607;-88
2021/01/01 06:59:58;;;;;;;8.57;5.80;;;3.00;99.90;;;;;;4926399;29;20517;-87
2021/01/01 07:02:31;;;;;;;7.97;5.13;;;3.00;99.90;;;;;;4939995;29;20207;-88
2021/01/01 07:04:57;;;;;;;7.87;5.67;;;2.90;99.90;;;;;;4923710;29;20467;-87
2021/01/01 07:07:50;;;;;;;7.60;5.50;;;2.90;99.90;;;;;;4940484;28;20465;-87
2021/01/01 07:10:34;;;;;;;12.00;5.67;;;2.80;99.90;;;;;;4926606;29;20490;-88
2021/01/01 07:13:18;;;;;;;8.97;5.40;;;2.80;99.90;;;;;;4921480;29;20833;-87
2021/01/01 07:15:43;;;;;;;9.57;5.03;;;2.80;99.90;;;;;;4923972;28;21247;-85
2021/01/01 07:18:22;;;;;;;9.93;5.93;;;2.80;99.90;;;;;;4922238;29;20523;-87
2021/01/01 07:20:50;;;;;;;7.20;4.63;;;2.80;99.90;;;;;;4923155;29;20286;-87
2021/01/01 07:23:19;;;;;;;9.70;5.33;;;2.80;99.90;;;;;;4908678;29;20810;-86
2021/01/01 07:25:44;;;;;;;8.27;5.83;;;2.80;99.90;;;;;;4938107;29;20470;-87
2021/01/01 07:28:10;;;;;;;8.60;5.30;;;2.80;99.90;;;;;;4938699;29;20467;-86
2021/01/01 07:30:36;;;;;;;7.53;4.70;;;2.90;99.90;;;;;;4922644;29;20187;-85
2021/01/01 07:33:05;;;;;;;12.30;5.80;;;2.80;99.90;;;;;;4920656;29;20427;-87
2021/01/01 07:35:31;;;;;;;10.47;5.77;;;2.90;99.90;;;;;;4921449;29;20188;-87
2021/01/01 07:37:58;;;;;;;10.47;6.33;;;2.80;99.90;;;;;;4940737;29;20442;-86
2021/01/01 07:40:27;;;;;;;8.80;5.80;;;2.80;99.90;;;;;;4921485;29;20208;-87
2021/01/01 07:42:53;;;;;;;11.80;6.37;;;2.80;99.90;;;;;;4921787;29;20444;-88
2021/01/01 07:45:23;;;;;;;9.30;5.90;;;2.90;99.90;;;;;;4925089;29;20490;-86
2021/01/01 07:47:49;;;;;;;11.50;6.70;;;2.90;99.90;;;;;;4924312;29;20509;-85
2021/01/01 07:50:17;;;;;;;11.07;7.30;;;2.90;99.90;;;;;;4927725;29;20859;-85
2021/01/01 07:52:43;;;;;;;9.57;6.40;;;2.90;99.90;;;;;;4942933;29;20207;-87
2021/01/01 07:55:09;;;;;;;11.83;7.53;;;3.00;99.90;;;;;;4925204;29;20446;-87
2021/01/01 07:57:44;;;;;;;7.00;5.50;;;3.00;99.90;;;;;;4939705;29;20483;-86
2021/01/01 08:00:13;;;;;;;7.87;5.20;;;3.00;99.90;;;;;;4925570;29;20458;-87
2021/01/01 08:02:39;;;;;;;14.03;5.93;;;3.10;99.90;;;;;;4943401;29;20962;-88
2021/01/01 08:05:05;;;;;;;13.00;6.30;;;3.10;99.90;;;;;;4942661;29;20549;-85
2021/01/01 08:07:31;;;;;;;9.10;6.47;;;3.00;99.90;;;;;;4929329;29;20215;-85
2021/01/01 08:09:57;;;;;;;6.97;5.40;;;3.10;99.90;;;;;;4940594;29;20477;-85
2021/01/01 08:12:23;;;;;;;10.47;6.33;;;3.20;99.90;;;;;;4923914;29;20198;-86
2021/01/01 08:14:52;;;;;;;10.97;6.53;;;3.20;99.90;;;;;;4945857;28;20246;-85
2021/01/01 08:17:21;;;;;;;10.87;6.90;;;3.30;99.90;;;;;;4924347;29;20259;-86
2021/01/01 08:19:47;;;;;;;8.77;6.13;;;3.30;99.90;;;;;;4923862;29;21076;-87
2021/01/01 08:22:19;;;;;;;8.50;6.37;;;3.30;99.90;;;;;;4929578;29;20491;-87
2021/01/01 08:24:53;;;;;;;7.73;5.03;;;3.30;99.90;;;;;;4924434;29;20451;-83
2021/01/01 08:27:23;;;;;;;10.93;6.63;;;3.40;99.90;;;;;;4930914;29;20474;-86
2021/01/01 08:29:50;;;;;;;9.20;5.53;;;3.40;99.90;;;;;;4941533;28;20474;-86
2021/01/01 08:32:18;;;;;;;8.53;5.73;;;3.40;99.90;;;;;;4923049;29;20438;-85
2021/01/01 08:34:48;;;;;;;8.93;6.10;;;3.40;99.90;;;;;;4940626;29;20445;-87
2021/01/01 08:37:22;;;;;;;11.40;6.80;;;3.50;99.90;;;;;;4928652;29;20861;-85
2021/01/01 08:39:59;;;;;;;9.67;6.53;;;3.50;99.90;;;;;;4942425;29;20443;-84
2021/01/01 08:42:25;;;;;;;13.40;7.00;;;3.60;99.90;;;;;;4927711;29;20451;-85
2021/01/01 08:44:57;;;;;;;10.40;7.00;;;3.60;99.90;;;;;;4941572;29;20809;-86
2021/01/01 08:47:42;;;;;;;7.60;5.17;;;3.60;99.90;;;;;;4940497;29;20467;-86
2021/01/01 08:50:19;;;;;;;10.10;6.33;;;3.60;99.90;;;;;;4924178;29;20450;-84
2021/01/01 08:52:45;;;;;;;10.93;7.57;;;3.60;99.90;;;;;;4909695;29;20485;-87
2021/01/01 08:55:12;;;;;;;10.17;7.07;;;3.60;99.90;;;;;;4908924;29;20448;-86
2021/01/01 08:57:38;;;;;;;13.03;6.47;;;3.60;99.90;;;;;;4924702;29;20538;-85
2021/01/01 09:00:13;;;;;;;10.87;6.87;;;3.60;99.90;;;;;;4907817;29;20571;-86
2021/01/01 09:02:42;;;;;;;10.50;6.03;;;3.50;99.90;;;;;;4923686;29;20655;-86
2021/01/01 09:05:12;;;;;;;9.30;6.10;;;3.40;99.90;;;;;;4940286;29;20475;-86
2021/01/01 09:07:38;;;;;;;10.00;5.93;;;3.40;99.90;;;;;;4938875;28;20455;-86
2021/01/01 09:10:17;;;;;;;12.73;8.37;;;3.30;99.90;;;;;;4938873;29;20444;-86
2021/01/01 09:12:43;;;;;;;11.00;7.60;;;3.30;99.90;;;;;;4922333;29;20871;-87
2021/01/01 09:15:12;;;;;;;12.97;7.60;;;3.20;99.90;;;;;;4929609;29;20525;-86
2021/01/01 09:17:38;;;;;;;11.43;7.30;;;3.20;99.90;;;;;;4920361;29;20725;-85
2021/01/01 09:20:08;;;;;;;11.03;7.37;;;3.20;99.90;;;;;;4937043;29;20459;-83
2021/01/01 09:22:38;;;;;;;11.13;7.00;;;3.20;99.90;;;;;;4924182;29;20191;-83
2021/01/01 09:25:27;;;;;;;10.03;7.13;;;3.10;99.90;;;;;;4938638;29;20454;-85
2021/01/01 09:27:54;;;;;;;16.03;7.50;;;3.10;99.90;;;;;;4939093;29;20993;-84
2021/01/01 09:30:22;;;;;;;11.97;7.20;;;3.10;99.90;;;;;;4955772;28;20444;-89
2021/01/01 09:33:04;;;;;;;13.77;8.10;;;3.10;99.90;;;;;;4964443;28;20431;-89
2021/01/01 09:35:30;;;;;;;13.60;7.63;;;3.00;99.90;;;;;;4962676;28;20461;-90
2021/01/01 09:38:01;;;;;;;10.90;6.47;;;3.00;99.90;;;;;;4955256;28;20446;-84
2021/01/01 09:40:29;;;;;;;11.77;7.40;;;3.00;99.90;;;;;;4941649;29;20435;-85
2021/01/01 09:42:55;;;;;;;12.37;7.13;;;3.00;99.90;;;;;;4941249;29;20518;-84
2021/01/01 09:45:21;;;;;;;13.73;8.77;;;3.00;99.90;;;;;;4920319;29;20439;-84
2021/01/01 09:47:49;;;;;;;11.63;7.70;;;3.10;99.90;;;;;;4938371;28;20461;-85
2021/01/01 09:55:21;;;;;;;13.13;7.63;;;3.10;99.90;;;;;;4988440;28;20489;-85
2021/01/01 09:57:48;;;;;;;13.60;8.83;;;3.20;99.90;;;;;;5111737;23;20498;-86
2021/01/01 10:03:09;;;;;;;15.40;8.20;;;3.10;99.90;;;;;;5099966;23;20531;-86
2021/01/01 10:13:57;;;;;;;15.83;9.43;;;3.10;99.90;;;;;;3112567;26;21005;-88
2021/01/01 10:16:23;;;;;;;13.90;8.60;;;3.20;99.90;;;;;;4959662;28;20506;-87
2021/01/01 10:18:51;;;;;;;13.77;8.67;;;3.20;99.90;;;;;;4961749;28;20217;-86
2021/01/01 10:21:20;;;;;;;16.90;9.77;;;3.20;99.90;;;;;;4950668;28;20190;-88
2021/01/01 10:24:00;;;;;;;16.97;10.30;;;3.30;99.90;;;;;;4958949;28;20443;-87
2021/01/01 10:27:03;;;;;;;20.63;10.83;;;3.50;99.90;;;;;;5009028;23;20487;-88
2021/01/01 10:29:29;;;;;;;20.23;10.17;;;3.70;99.90;;;;;;4950671;28;20546;-87
2021/01/01 10:32:02;;;;;;;17.47;9.90;;;3.90;99.90;;;;;;4975264;23;20527;-86
2021/01/01 10:34:38;;;;;;;15.80;9.27;;;4.10;99.90;;;;;;4927740;28;20168;-86
2021/01/01 10:37:20;;;;;;;17.97;8.23;;;4.20;99.90;;;;;;4934862;28;20465;-89
2021/01/01 10:40:00;;;;;;;13.80;9.37;;;4.30;99.90;;;;;;4963372;23;20427;-88
2021/01/01 12:24:35;;;;;;;;;;;;;;;;;;;;;
2021/01/01 12:35:37;;;;;;;11.43;7.27;;;7.10;99.90;;;;;;5168044;23;20500;-78
2021/01/01 12:38:08;;;;;;;13.63;8.33;;;6.90;99.90;;;;;;4967575;28;20436;-78
2021/01/01 12:40:36;;;;;;;14.30;8.90;;;6.90;99.90;;;;;;4969021;28;20469;-78
2021/01/01 12:43:03;;;;;;;11.53;8.13;;;6.90;99.90;;;;;;4965646;28;20429;-80
2021/01/01 12:45:29;;;;;;;14.17;7.23;;;6.80;99.90;;;;;;4970586;28;21596;-79
2021/01/01 12:47:56;;;;;;;13.03;7.73;;;6.80;99.90;;;;;;4969087;28;20436;-77
2021/01/01 12:50:22;;;;;;;14.00;7.90;;;6.70;99.90;;;;;;4966018;28;20873;-77
2021/01/01 12:52:55;;;;;;;14.97;7.60;;;6.70;99.90;;;;;;4943824;28;20481;-78
2021/01/01 12:55:22;;;;;;;10.40;7.33;;;6.80;99.90;;;;;;4963312;28;20526;-80
2021/01/01 12:57:47;;;;;;;10.57;7.53;;;7.10;99.90;;;;;;4963855;28;20579;-79
2021/01/01 13:00:13;;;;;;;13.97;7.37;;;7.40;99.90;;;;;;4964781;28;20472;-79
2021/01/01 13:03:00;;;;;;;14.23;7.60;;;7.40;99.90;;;;;;4951771;28;20704;-82
2021/01/01 13:05:31;;;;;;;14.07;8.20;;;7.60;99.90;;;;;;4948849;28;20473;-82
2021/01/01 13:08:04;;;;;;;15.77;8.67;;;7.60;99.90;;;;;;4939946;28;20446;-79
2021/01/01 13:10:29;;;;;;;17.10;8.67;;;7.50;99.90;;;;;;4952920;28;20453;-80
2021/01/01 13:12:55;;;;;;;11.20;8.07;;;7.30;99.90;;;;;;4968708;28;20520;-80
2021/01/01 13:15:24;;;;;;;14.83;8.37;;;7.00;99.90;;;;;;4952446;28;20183;-81
2021/01/01 13:17:52;;;;;;;16.27;9.47;;;7.00;99.90;;;;;;4939460;28;20320;-79
2021/01/01 13:20:18;;;;;;;16.17;8.83;;;6.80;99.90;;;;;;4953710;28;20459;-80
2021/01/01 13:23:08;;;;;;;13.00;8.20;;;6.70;99.90;;;;;;4937050;28;20459;-79
2021/01/01 13:25:38;;;;;;;14.10;8.83;;;6.60;99.90;;;;;;4950752;28;20268;-79
2021/01/01 13:28:03;;;;;;;14.23;8.20;;;6.50;99.90;;;;;;4968186;28;20542;-79
2021/01/01 13:30:29;;;;;;;12.90;7.67;;;6.50;99.90;;;;;;4946930;28;20581;-79
2021/01/01 13:32:55;;;;;;;10.13;7.00;;;6.40;99.90;;;;;;4950007;28;21181;-79
2021/01/01 13:35:21;;;;;;;12.40;7.20;;;6.40;99.90;;;;;;4964560;28;20198;-81
2021/01/01 13:37:47;;;;;;;14.27;8.33;;;6.40;99.90;;;;;;4950065;28;20554;-81
2021/01/01 13:40:13;;;;;;;12.60;7.70;;;6.50;99.90;;;;;;4951348;28;20195;-82
2021/01/01 13:42:39;;;;;;;14.93;8.53;;;6.40;99.90;;;;;;4947145;28;20187;-79
2021/01/01 13:45:05;;;;;;;13.40;7.83;;;6.30;99.90;;;;;;4964889;28;20456;-82
2021/01/01 13:47:30;;;;;;;12.97;8.03;;;6.20;99.90;;;;;;4965043;28;20214;-79
2021/01/01 13:49:56;;;;;;;12.53;7.30;;;6.20;99.90;;;;;;4934988;28;20485;-80
2021/01/01 13:52:22;;;;;;;14.23;7.67;;;6.10;99.90;;;;;;4947677;28;21340;-80
2021/01/01 13:54:48;;;;;;;14.43;7.37;;;6.10;99.90;;;;;;4950209;28;20476;-81
2021/01/01 13:57:14;;;;;;;13.67;7.90;;;6.00;99.90;;;;;;4947828;28;20465;-83
2021/01/01 13:59:40;;;;;;;13.57;7.80;;;5.80;99.90;;;;;;4934999;28;20439;-81
2021/01/01 14:02:07;;;;;;;14.47;8.30;;;5.80;99.90;;;;;;4959866;28;20206;-81
2021/01/01 14:04:33;;;;;;;13.70;8.30;;;5.70;99.90;;;;;;4952014;28;20503;-80
2021/01/01 14:07:02;;;;;;;11.87;7.27;;;5.60;99.90;;;;;;4965170;28;20468;-82
2021/01/01 14:09:31;;;;;;;11.10;7.90;;;5.60;99.90;;;;;;4968236;28;20416;-82
2021/01/01 14:12:08;;;;;;;15.50;9.00;;;5.60;99.90;;;;;;4953581;28;20484;-80
2021/01/01 14:14:34;;;;;;;14.83;9.07;;;5.40;99.90;;;;;;4951055;28;20540;-81
2021/01/01 14:17:00;;;;;;;15.93;8.57;;;5.40;99.90;;;;;;4947309;28;20465;-82
2021/01/01 14:19:28;;;;;;;14.00;8.10;;;5.40;99.90;;;;;;4965727;28;20202;-82
2021/01/01 14:21:54;;;;;;;14.60;8.90;;;5.40;99.90;;;;;;4933352;28;20344;-82
2021/01/01 14:24:25;;;;;;;14.13;8.50;;;5.50;99.90;;;;;;4932414;28;20438;-81
2021/01/01 14:27:06;;;;;;;14.50;8.40;;;5.40;99.90;;;;;;4947973;28;20345;-85
2021/01/01 14:30:30;;;;;;;16.20;9.87;;;5.40;99.90;;;;;;4945732;28;20905;-83
2021/01/01 14:33:02;;;;;;;13.83;8.43;;;5.30;99.90;;;;;;4871796;29;20442;-81
2021/01/01 14:35:40;;;;;;;9.93;7.50;;;5.30;99.90;;;;;;4871896;29;20508;-83
2021/01/01 14:38:34;;;;;;;15.57;8.80;;;5.30;99.90;;;;;;4907909;28;22930;-84
2021/01/01 14:50:47;;;;;;;15.40;8.17;;;5.00;99.90;;;;;;4942332;28;20482;-81
2021/01/01 14:53:13;;;;;;;15.27;9.13;;;5.00;99.90;;;;;;4928014;28;20520;-80
2021/01/01 14:55:52;;;;;;;12.00;7.53;;;5.00;99.90;;;;;;4942501;28;20449;-84
2021/01/01 14:58:23;;;;;;;20.53;9.40;;;5.10;99.90;;;;;;4948239;28;20422;-85
2021/01/01 15:00:49;;;;;;;12.93;8.47;;;5.10;99.90;;;;;;4929761;28;20608;-85
2021/01/01 15:03:15;;;;;;;12.67;8.73;;;5.10;99.90;;;;;;4960028;28;20431;-83
2021/01/01 15:05:43;;;;;;;14.70;8.30;;;5.10;99.90;;;;;;4963633;28;20226;-88
2021/01/01 15:08:19;;;;;;;11.83;7.97;;;5.20;99.90;;;;;;4946035;28;20202;-84
2021/01/01 15:10:45;;;;;;;17.73;8.83;;;5.10;99.90;;;;;;4931618;28;20438;-82
2021/01/01 15:13:10;;;;;;;15.00;8.43;;;5.00;99.90;;;;;;4962185;28;21032;-88
2021/01/01 15:15:36;;;;;;;15.40;7.60;;;5.00;99.90;;;;;;4934274;28;20190;-84
2021/01/01 15:18:10;;;;;;;15.40;8.20;;;5.20;99.90;;;;;;4948653;28;20289;-84
2021/01/01 15:20:36;;;;;;;14.23;8.70;;;5.20;99.90;;;;;;4944810;28;20182;-86
2021/01/01 15:23:22;;;;;;;14.90;8.40;;;5.10;99.90;;;;;;4931244;28;20478;-85
2021/01/01 15:25:48;;;;;;;11.90;7.83;;;5.20;99.90;;;;;;4948118;28;20222;-85
2021/01/01 15:28:30;;;;;;;14.03;7.80;;;5.00;99.90;;;;;;4931137;28;20446;-85
2021/01/01 15:31:07;;;;;;;19.57;8.83;;;4.90;99.90;;;;;;4945118;28;20288;-83
2021/01/01 15:33:33;;;;;;;10.77;6.90;;;4.70;99.90;;;;;;4953261;28;20529;-81
2021/01/01 15:35:58;;;;;;;11.77;7.77;;;4.60;99.90;;;;;;4954366;28;20913;-82
2021/01/01 15:38:24;;;;;;;13.00;8.17;;;4.60;99.90;;;;;;4951588;28;20202;-85
2021/01/01 15:41:14;;;;;;;13.90;7.00;;;4.60;99.90;;;;;;4961401;28;20194;-84
2021/01/01 15:43:46;;;;;;;13.23;8.27;;;4.50;99.90;;;;;;4952686;28;20175;-85